This demonstration page uses our WeatherBlox Daily Observations layout. Learn more.

Left ArrowRight Arrow

41.55636, -103.73856

Hourly Observations for March 7, 2021

Temp ( °F °C ) Dew Point ( °F °C ) Humidity (%) Winds ( mph kmh ) Pressure ( in mb ) Visibility ( mi km ) Precip ( " mm )
12:58 am 00:58 Clear 45 7.2 12 -11.1 26 26 W 3 6 29.85 1011 10 16.0934 0 0
1:58 am 01:58 Clear 44 6.5 13 -10.4 29 29 WNW 5 7 29.85 1011 10 16.0934 0 0
2:58 am 02:58 Clear 40 4.7 14 -10.2 33 33 W 6 9 29.88 1012 10 16.0934 0 0
3:58 am 03:58 Clear 42 5.6 15 -9.7 33 33 WSW 9 15 29.87 1011 10 16.0934 0 0
4:58 am 04:58 Clear 39 4 15 -9.4 37 37 W 7 11 29.91 1013 10 16.0934 0 0
5:58 am 05:58 Clear 41 4.9 14 -9.8 34 34 NW 5 7 30 1016 10 16.0934 0 0
6:58 am 06:58 Sunny 38 3.5 19 -7 47 47 W 13 20 30.04 1017 10 16.0934 0 0
7:58 am 07:58 Sunny 46 7.8 21 -6.2 37 37 WNW 12 19 30.04 1017 10 16.0934 0 0
8:58 am 08:58 Sunny 49 9.7 21 -6.3 32 32 NNW 14 22 30.05 1018 10 16.0934 0 0
9:58 am 09:58 Sunny 52 11.3 20 -6.7 28 28 NNW 10 17 30.09 1019 10 16.0934 0 0
10:58 am 10:58 Sunny 55 12.6 21 -6.3 26 26 NNW 10 17 30.06 1018 10 16.0934 0 0
11:58 am 11:58 Sunny 58 14.2 20 -6.4 24 24 N 8 13 30.05 1018 10 16.0934 0 0
12:58 pm 12:58 Sunny 58 14.3 20 -6.7 23 23 Calm 30.01 1016 10 16.0934 0 0
1:58 pm 13:58 Sunny 60 15.7 20 -6.4 21 21 SSE 6 9 30 1016 10 16.0934 0 0
2:58 pm 14:58 Sunny 63 17.1 18 -7.7 18 18 SSE 10 17 30 1016 10 16.0934 0 0
3:58 pm 15:58 Sunny 63 17.2 16 -8.7 16 16 SSE 12 19 29.99 1016 10 16.0934 0 0
4:58 pm 16:58 Sunny 60 15.8 15 -9.7 16 16 SSE 9 15 30.01 1016 10 16.0934 0 0
5:58 pm 17:58 Partly Cloudy 52 11.1 19 -7.4 27 27 Calm 30.05 1018 10 16.0934 0 0
6:58 pm 18:58 Mostly Cloudy 51 10.4 19 -7.5 28 28 E 7 11 30.1 1019 10 16.0934 0 0
7:58 pm 19:58 Mostly Clear 45 7.3 18 -7.6 34 34 SE 7 11 30.1 1019 10 16.0934 0 0
8:58 pm 20:58 Mostly Clear 41 5 19 -7.1 42 42 SSW 12 19 30.12 1020 10 16.0934 0 0
9:58 pm 21:58 Clear 44 6.8 20 -6.4 39 39 SW 13 20 30.09 1019 10 16.0934 0 0
10:58 pm 22:58 Clear 37 2.9 21 -6.3 51 51 SSW 7 11 30.09 1019 10 16.0934 0 0
11:58 pm 23:58 Mostly Clear 38 3.2 20 -6.5 49 49 S 12 19 30.05 1018 10 16.0934 0 0

Powered by AerisWeather